createdAt,value
2016-08-23T00:00:56.869Z,0
2016-08-23T00:01:58.272Z,0
2016-08-23T00:02:58.951Z,0
2016-08-23T00:03:57.644Z,0
2016-08-23T00:04:59.344Z,0
2016-08-23T00:05:57.575Z,0
2016-08-23T00:06:57.705Z,0
2016-08-23T00:07:59.021Z,0
2016-08-23T00:08:57.501Z,0
2016-08-23T00:09:56.941Z,0
2016-08-23T00:10:58.324Z,0
2016-08-23T00:11:58.141Z,0
2016-08-23T00:12:57.050Z,0
2016-08-23T00:13:57.601Z,0
2016-08-23T00:14:59.340Z,0
2016-08-23T00:15:56.767Z,0
2016-08-23T00:16:58.329Z,0
2016-08-23T00:17:57.743Z,0
2016-08-23T00:18:58.317Z,0
2016-08-23T00:19:58.585Z,0
2016-08-23T00:20:58.392Z,0
2016-08-23T00:21:59.085Z,0
2016-08-23T00:22:59.010Z,0
2016-08-23T00:23:58.469Z,0
2016-08-23T00:24:58.500Z,0
2016-08-23T00:25:58.542Z,0
2016-08-23T00:26:59.175Z,0
2016-08-23T00:27:57.680Z,0
2016-08-23T00:28:58.514Z,0
2016-08-23T00:29:58.780Z,0
2016-08-23T00:30:58.493Z,0
2016-08-23T00:31:57.789Z,0
2016-08-23T00:32:58.533Z,0
2016-08-23T00:33:58.732Z,0
2016-08-23T00:34:58.776Z,0
2016-08-23T00:35:59.127Z,0
2016-08-23T00:36:58.543Z,0
2016-08-23T00:37:59.459Z,0
2016-08-23T00:38:58.558Z,0
2016-08-23T00:39:58.561Z,0
2016-08-23T00:40:57.908Z,0
2016-08-23T00:41:58.507Z,0
2016-08-23T00:42:59.499Z,0
2016-08-23T00:44:00.227Z,0
2016-08-23T00:44:58.467Z,0
2016-08-23T00:45:57.253Z,0
2016-08-23T00:46:58.585Z,0
2016-08-23T00:48:00.283Z,0
2016-08-23T00:48:58.018Z,0
2016-08-23T00:49:58.609Z,0
2016-08-23T00:50:59.513Z,0
2016-08-23T00:51:59.389Z,0
2016-08-23T00:52:59.504Z,0
2016-08-23T00:53:58.662Z,0
2016-08-23T00:54:59.331Z,0
2016-08-23T00:55:58.639Z,0
2016-08-23T00:56:57.937Z,0
2016-08-23T00:57:57.896Z,0
2016-08-23T00:58:57.848Z,0
2016-08-23T00:59:59.363Z,0
2016-08-23T01:00:59.357Z,0
2016-08-23T01:01:59.371Z,0
2016-08-23T01:02:59.328Z,0
2016-08-23T01:03:58.703Z,0
2016-08-23T01:04:58.801Z,0
2016-08-23T01:05:59.353Z,0
2016-08-23T01:06:58.610Z,0
2016-08-23T01:07:58.520Z,0
2016-08-23T01:08:58.708Z,0
2016-08-23T01:09:57.326Z,0
2016-08-23T01:10:58.803Z,0
2016-08-23T01:11:58.721Z,0
2016-08-23T01:12:57.959Z,0
2016-08-23T01:14:12.069Z,0
2016-08-23T01:14:57.221Z,0
2016-08-23T01:15:59.416Z,0
2016-08-23T01:16:58.804Z,0
2016-08-23T01:17:58.078Z,0
2016-08-23T01:18:59.711Z,0
2016-08-23T01:19:58.811Z,0
2016-08-23T01:20:59.506Z,0
2016-08-23T01:21:59.584Z,0
2016-08-23T01:22:58.252Z,0
2016-08-23T01:23:58.088Z,0
2016-08-23T01:24:58.930Z,0
2016-08-23T01:25:58.028Z,0
2016-08-23T01:26:58.949Z,0
2016-08-23T01:27:58.737Z,0
2016-08-23T01:28:57.394Z,0
2016-08-23T01:29:59.727Z,0
2016-08-23T01:30:58.921Z,0
2016-08-23T01:31:58.966Z,0
2016-08-23T01:32:59.869Z,0
2016-08-23T01:33:58.236Z,0
2016-08-23T01:34:58.192Z,0
2016-08-23T01:35:59.637Z,0
2016-08-23T01:36:57.263Z,0
2016-08-23T01:37:59.706Z,0
2016-08-23T01:38:58.746Z,0
2016-08-23T01:39:59.724Z,0
2016-08-23T01:40:59.639Z,0
2016-08-23T01:41:58.897Z,0
2016-08-23T01:42:58.268Z,0
2016-08-23T01:43:58.216Z,0
2016-08-23T01:44:58.901Z,0
2016-08-23T01:45:58.311Z,0
2016-08-23T01:46:59.844Z,0
2016-08-23T01:47:59.717Z,0
2016-08-23T01:48:58.173Z,0
2016-08-23T01:49:58.226Z,0
2016-08-23T01:50:59.084Z,0
2016-08-23T01:51:58.183Z,0
2016-08-23T01:52:57.497Z,0
2016-08-23T01:53:59.431Z,0
2016-08-23T01:54:58.316Z,0
2016-08-23T01:55:59.703Z,0
2016-08-23T01:56:59.267Z,0
2016-08-23T01:57:59.132Z,0
2016-08-23T01:58:58.894Z,0
2016-08-23T01:59:58.642Z,0
2016-08-23T02:00:58.407Z,0
2016-08-23T02:01:57.552Z,0
2016-08-23T02:02:58.985Z,0
2016-08-23T02:03:59.224Z,0
2016-08-23T02:04:58.478Z,0
2016-08-23T02:05:58.277Z,0
2016-08-23T02:06:59.848Z,0
2016-08-23T02:07:59.035Z,0
2016-08-23T02:08:59.076Z,0
2016-08-23T02:09:58.295Z,0
2016-08-23T02:10:59.838Z,0
2016-08-23T02:11:59.076Z,0
2016-08-23T02:12:58.304Z,0
2016-08-23T02:13:59.975Z,0
2016-08-23T02:14:59.096Z,0
2016-08-23T02:15:58.355Z,0
2016-08-23T02:16:59.306Z,0
2016-08-23T02:17:58.366Z,0
2016-08-23T02:18:59.869Z,0
2016-08-23T02:19:58.410Z,0
2016-08-23T02:20:59.226Z,0
2016-08-23T02:21:59.012Z,0
2016-08-23T02:23:00.191Z,0
2016-08-23T02:23:59.794Z,0
2016-08-23T02:24:59.235Z,0
2016-08-23T02:25:58.478Z,0
2016-08-23T02:26:59.115Z,0
2016-08-23T02:28:00.079Z,0
2016-08-23T02:28:59.408Z,0
2016-08-23T02:29:59.359Z,0
2016-08-23T02:30:59.839Z,0
2016-08-23T02:31:58.674Z,0
2016-08-23T02:32:57.639Z,0
2016-08-23T02:33:57.849Z,0
2016-08-23T02:35:00.190Z,0
2016-08-23T02:35:58.435Z,0
2016-08-23T02:36:59.185Z,0
2016-08-23T02:37:58.590Z,0
2016-08-23T02:38:58.796Z,0
2016-08-23T02:40:00.098Z,0
2016-08-23T02:41:00.111Z,0
2016-08-23T02:41:58.635Z,0
2016-08-23T02:42:59.330Z,0
2016-08-23T02:43:59.424Z,0
2016-08-23T02:45:00.790Z,0
2016-08-23T02:45:58.587Z,0
2016-08-23T02:46:58.640Z,0
2016-08-23T02:47:58.560Z,0
2016-08-23T02:48:59.451Z,0
2016-08-23T02:50:00.625Z,0
2016-08-23T02:50:59.231Z,0
2016-08-23T02:51:59.386Z,0
2016-08-23T02:52:58.778Z,0
2016-08-23T02:53:58.847Z,0
2016-08-23T02:55:00.292Z,0
2016-08-23T02:56:00.343Z,0
2016-08-23T02:56:58.855Z,0
2016-08-23T02:58:00.332Z,0
2016-08-23T02:58:59.561Z,0
2016-08-23T02:59:59.581Z,0
2016-08-23T03:00:58.785Z,0
2016-08-23T03:01:58.711Z,0
2016-08-23T03:02:59.638Z,0
2016-08-23T03:03:59.385Z,0
2016-08-23T03:04:59.291Z,0
2016-08-23T03:05:59.548Z,0
2016-08-23T03:07:02.010Z,0
2016-08-23T03:07:58.703Z,0
2016-08-23T03:08:58.796Z,0
2016-08-23T03:09:59.540Z,0
2016-08-23T03:10:58.090Z,0
2016-08-23T03:11:58.793Z,0
2016-08-23T03:12:59.689Z,0
2016-08-23T03:14:00.424Z,0
2016-08-23T03:14:59.544Z,0
2016-08-23T03:15:58.807Z,0
2016-08-23T03:16:58.836Z,0
2016-08-23T03:17:58.663Z,0
2016-08-23T03:18:58.304Z,0
2016-08-23T03:19:59.647Z,0
2016-08-23T03:20:59.551Z,0
2016-08-23T03:21:59.438Z,0
2016-08-23T03:23:00.384Z,0
2016-08-23T03:23:58.892Z,0
2016-08-23T03:25:00.801Z,0
2016-08-23T03:25:59.988Z,0
2016-08-23T03:26:58.092Z,0
2016-08-23T03:27:58.858Z,0
2016-08-23T03:28:59.747Z,0
2016-08-23T03:29:58.941Z,0
2016-08-23T03:30:59.491Z,0
2016-08-23T03:31:58.822Z,0
2016-08-23T03:32:59.575Z,0
2016-08-23T03:33:59.629Z,0
2016-08-23T03:34:59.266Z,0
2016-08-23T03:35:59.619Z,0
2016-08-23T03:36:59.771Z,0
2016-08-23T03:37:59.672Z,0
2016-08-23T03:38:59.669Z,0
2016-08-23T03:40:00.368Z,0
2016-08-23T03:40:59.554Z,0
2016-08-23T03:41:58.442Z,0
2016-08-23T03:43:00.401Z,0
2016-08-23T03:43:58.936Z,0
2016-08-23T03:44:59.734Z,0
2016-08-23T03:46:00.525Z,0
2016-08-23T03:46:59.559Z,0
2016-08-23T03:47:59.033Z,0
2016-08-23T03:48:57.555Z,0
2016-08-23T03:50:00.397Z,0
2016-08-23T03:50:59.877Z,0
2016-08-23T03:51:59.147Z,0
2016-08-23T03:53:00.520Z,0
2016-08-23T03:53:59.905Z,0
2016-08-23T03:54:59.820Z,0
2016-08-23T03:55:59.078Z,0
2016-08-23T03:56:59.725Z,0
2016-08-23T03:57:58.991Z,0
2016-08-23T03:58:59.277Z,0
2016-08-23T04:00:00.677Z,0
2016-08-23T04:01:00.548Z,0
2016-08-23T04:02:00.693Z,0
2016-08-23T04:02:59.070Z,0
2016-08-23T04:03:59.016Z,0
2016-08-23T04:04:59.957Z,0
2016-08-23T04:06:00.526Z,0
2016-08-23T04:06:59.171Z,0
2016-08-23T04:07:58.289Z,0
2016-08-23T04:09:00.776Z,0
2016-08-23T04:09:59.012Z,0
2016-08-23T04:10:59.128Z,0
2016-08-23T04:12:00.650Z,0
2016-08-23T04:12:59.843Z,0
2016-08-23T04:14:00.780Z,0
2016-08-23T04:15:01.366Z,0
2016-08-23T04:15:59.160Z,0
2016-08-23T04:16:59.149Z,0
2016-08-23T04:18:00.654Z,0
2016-08-23T04:18:59.853Z,0
2016-08-23T04:20:00.789Z,0
2016-08-23T04:20:59.384Z,0
2016-08-23T04:21:59.109Z,0
2016-08-23T04:23:00.783Z,0
2016-08-23T04:23:59.103Z,0
2016-08-23T04:25:00.744Z,0
2016-08-23T04:25:59.835Z,0
2016-08-23T04:27:00.025Z,0
2016-08-23T04:28:00.046Z,0
2016-08-23T04:28:59.922Z,0
2016-08-23T04:30:00.606Z,0
2016-08-23T04:30:59.884Z,0
2016-08-23T04:31:59.214Z,0
2016-08-23T04:32:59.988Z,0
2016-08-23T04:33:59.977Z,0
2016-08-23T04:34:58.764Z,0
2016-08-23T04:35:59.951Z,0
2016-08-23T04:37:00.756Z,5
2016-08-23T04:38:00.664Z,5
2016-08-23T04:39:00.058Z,5
2016-08-23T04:40:00.790Z,5
2016-08-23T04:41:00.142Z,5
2016-08-23T04:42:00.766Z,5
2016-08-23T04:43:00.077Z,5
2016-08-23T04:43:59.243Z,5
2016-08-23T04:45:00.278Z,5
2016-08-23T04:45:59.420Z,5
2016-08-23T04:46:59.459Z,5
2016-08-23T04:48:00.340Z,5
2016-08-23T04:48:59.279Z,10
2016-08-23T04:49:59.451Z,10
2016-08-23T04:50:58.708Z,10
2016-08-23T04:52:00.877Z,10
2016-08-23T04:53:00.017Z,10
2016-08-23T04:54:00.339Z,10
2016-08-23T04:55:00.174Z,10
2016-08-23T04:55:58.895Z,10
2016-08-23T04:57:00.211Z,10
2016-08-23T04:58:00.256Z,10
2016-08-23T04:59:00.124Z,15
2016-08-23T05:00:00.284Z,15
2016-08-23T05:01:01.126Z,15
2016-08-23T05:02:00.232Z,15
2016-08-23T05:03:00.315Z,15
2016-08-23T05:04:00.183Z,15
2016-08-23T05:05:00.152Z,15
2016-08-23T05:06:00.244Z,15
2016-08-23T05:07:00.276Z,15
2016-08-23T05:07:59.437Z,20
2016-08-23T05:09:01.029Z,20
2016-08-23T05:10:00.277Z,20
2016-08-23T05:10:59.430Z,20
2016-08-23T05:11:59.484Z,20
2016-08-23T05:12:59.802Z,25
2016-08-23T05:13:59.681Z,25
2016-08-23T05:14:59.624Z,25
2016-08-23T05:16:00.284Z,30
2016-08-23T05:17:00.327Z,30
2016-08-23T05:17:59.484Z,35
2016-08-23T05:19:00.378Z,40
2016-08-23T05:19:59.643Z,50
2016-08-23T05:21:00.202Z,120
2016-08-23T05:21:59.607Z,195
2016-08-23T05:23:01.353Z,230
2016-08-23T05:24:00.359Z,235
2016-08-23T05:24:59.575Z,245
2016-08-23T05:25:59.706Z,165
2016-08-23T05:27:01.185Z,85
2016-08-23T05:27:59.898Z,155
2016-08-23T05:29:00.312Z,215
2016-08-23T05:30:00.267Z,140
2016-08-23T05:30:59.875Z,90
2016-08-23T05:31:59.617Z,75
2016-08-23T05:32:59.602Z,80
2016-08-23T05:33:59.653Z,65
2016-08-23T05:35:00.550Z,45
2016-08-23T05:36:01.181Z,50
2016-08-23T05:37:00.474Z,50
2016-08-23T05:37:59.731Z,40
2016-08-23T05:39:01.299Z,35
2016-08-23T05:40:00.595Z,35
2016-08-23T05:41:00.483Z,40
2016-08-23T05:41:59.116Z,45
2016-08-23T05:42:59.760Z,50
2016-08-23T05:44:01.315Z,55
2016-08-23T05:44:59.871Z,40
2016-08-23T05:45:59.152Z,40
2016-08-23T05:46:59.694Z,40
2016-08-23T05:48:01.302Z,40
2016-08-23T05:48:59.709Z,45
2016-08-23T05:50:00.506Z,40
2016-08-23T05:51:01.143Z,55
2016-08-23T05:51:59.025Z,55
2016-08-23T05:52:59.086Z,60
2016-08-23T05:54:00.537Z,60
2016-08-23T05:55:01.317Z,50
2016-08-23T05:55:59.852Z,85
2016-08-23T05:57:00.656Z,95
2016-08-23T05:57:59.170Z,80
2016-08-23T05:59:00.530Z,85
2016-08-23T06:00:00.515Z,55
2016-08-23T06:00:59.277Z,45
2016-08-23T06:02:00.595Z,50
2016-08-23T06:03:00.654Z,90
2016-08-23T06:03:59.423Z,90
2016-08-23T06:04:59.115Z,50
2016-08-23T06:06:01.349Z,50
2016-08-23T06:07:00.012Z,45
2016-08-23T06:08:00.642Z,50
2016-08-23T06:08:59.924Z,50
2016-08-23T06:09:59.998Z,65
2016-08-23T06:10:59.896Z,55
2016-08-23T06:12:00.660Z,50
2016-08-23T06:13:01.612Z,70
2016-08-23T06:14:00.258Z,105
2016-08-23T06:14:59.943Z,150
2016-08-23T06:15:59.950Z,95
2016-08-23T06:16:59.906Z,50
2016-08-23T06:18:00.637Z,60
2016-08-23T06:18:59.970Z,65
2016-08-23T06:20:00.684Z,70
2016-08-23T06:21:00.762Z,110
2016-08-23T06:22:01.986Z,80
2016-08-23T06:23:00.686Z,105
2016-08-23T06:24:00.774Z,315
2016-08-23T06:25:00.019Z,435
2016-08-23T06:26:00.677Z,290
2016-08-23T06:27:00.685Z,410
2016-08-23T06:28:01.502Z,675
2016-08-23T06:29:00.728Z,550
2016-08-23T06:30:00.157Z,300
2016-08-23T06:31:00.842Z,535
2016-08-23T06:31:59.387Z,755
2016-08-23T06:33:00.066Z,965
2016-08-23T06:34:00.795Z,1010
2016-08-23T06:35:00.119Z,1000
2016-08-23T06:36:00.929Z,900
2016-08-23T06:37:00.929Z,845
2016-08-23T06:37:59.457Z,970
2016-08-23T06:38:59.436Z,1035
2016-08-23T06:39:59.448Z,980
2016-08-23T06:41:01.686Z,920
2016-08-23T06:42:00.250Z,970
2016-08-23T06:42:59.560Z,995
2016-08-23T06:44:00.936Z,1000
2016-08-23T06:45:00.905Z,985
2016-08-23T06:46:00.246Z,1010
2016-08-23T06:47:00.929Z,1005
2016-08-23T06:48:00.387Z,1075
2016-08-23T06:49:00.376Z,1060
2016-08-23T06:50:00.985Z,910
2016-08-23T06:51:01.700Z,920
2016-08-23T06:52:01.066Z,940
2016-08-23T06:53:00.273Z,975
2016-08-23T06:54:01.030Z,900
2016-08-23T06:55:01.049Z,1015
2016-08-23T06:56:01.238Z,955
2016-08-23T06:56:59.599Z,925
2016-08-23T06:57:59.593Z,1090
2016-08-23T06:59:01.111Z,1120
2016-08-23T07:00:01.216Z,1070
2016-08-23T07:01:01.894Z,1000
2016-08-23T07:02:01.019Z,950
2016-08-23T07:03:00.316Z,945
2016-08-23T07:03:59.667Z,1095
2016-08-23T07:05:00.337Z,1265
2016-08-23T07:06:00.358Z,1330
2016-08-23T07:07:01.067Z,1320
2016-08-23T07:08:00.395Z,1095
2016-08-23T07:09:01.206Z,495
2016-08-23T07:10:00.495Z,90
2016-08-23T07:11:01.189Z,75
2016-08-23T07:12:01.127Z,65
2016-08-23T07:13:01.240Z,65
2016-08-23T07:14:01.877Z,65
2016-08-23T07:15:01.870Z,65
2016-08-23T07:16:00.518Z,65
2016-08-23T07:17:01.966Z,65
2016-08-23T07:18:00.538Z,65
2016-08-23T07:19:01.188Z,65
2016-08-23T07:20:00.483Z,65
2016-08-23T07:21:00.534Z,65
2016-08-23T07:22:01.245Z,65
2016-08-23T07:23:01.228Z,65
2016-08-23T07:24:02.106Z,65
2016-08-23T07:25:01.520Z,65
2016-08-23T07:26:00.628Z,65
2016-08-23T07:27:00.680Z,65
2016-08-23T07:27:59.855Z,65
2016-08-23T07:29:00.706Z,75
2016-08-23T07:30:01.268Z,75
2016-08-23T07:31:00.639Z,75
2016-08-23T07:32:00.654Z,75
2016-08-23T07:32:59.960Z,70
2016-08-23T07:34:00.599Z,70
2016-08-23T07:35:02.130Z,70
2016-08-23T07:36:01.473Z,70
2016-08-23T07:37:01.560Z,70
2016-08-23T07:37:59.981Z,70
2016-08-23T07:39:00.632Z,70
2016-08-23T07:40:00.632Z,70
2016-08-23T07:41:01.358Z,70
2016-08-23T07:42:00.670Z,70
2016-08-23T07:43:00.660Z,70
2016-08-23T07:44:58.763Z,70
2016-08-23T07:45:08.383Z,70
2016-08-23T07:46:11.172Z,70
2016-08-23T07:47:10.463Z,75
2016-08-23T07:48:10.475Z,75
2016-08-23T07:49:09.774Z,75
2016-08-23T07:50:09.779Z,75
2016-08-23T07:51:11.252Z,75
2016-08-23T07:52:11.254Z,75
2016-08-23T07:53:10.511Z,75
2016-08-23T07:54:10.566Z,75
2016-08-23T07:55:10.523Z,70
2016-08-23T07:56:10.723Z,70
2016-08-23T07:57:09.116Z,70
2016-08-23T07:58:12.271Z,70
2016-08-23T07:59:09.834Z,70
2016-08-23T08:00:11.132Z,70
2016-08-23T08:01:09.845Z,70
2016-08-23T08:02:09.858Z,70
2016-08-23T08:03:09.855Z,70
2016-08-23T08:04:10.573Z,70
2016-08-23T08:05:10.576Z,70
2016-08-23T08:06:09.875Z,70
2016-08-23T08:07:12.197Z,70
2016-08-23T08:08:11.305Z,70
2016-08-23T08:09:09.195Z,70
2016-08-23T08:10:10.607Z,70
2016-08-23T08:11:10.757Z,70
2016-08-23T08:12:10.671Z,65
2016-08-23T08:13:08.500Z,70
2016-08-23T08:14:09.931Z,70
2016-08-23T08:15:09.988Z,70
2016-08-23T08:16:11.342Z,75
2016-08-23T08:17:11.344Z,75
2016-08-23T08:18:11.624Z,75
2016-08-23T08:19:09.963Z,75
2016-08-23T08:20:11.413Z,75
2016-08-23T08:21:09.253Z,75
2016-08-23T08:22:10.677Z,75
2016-08-23T08:23:09.259Z,75
2016-08-23T08:24:10.684Z,75
2016-08-23T08:25:09.280Z,75
2016-08-23T08:26:09.983Z,75
2016-08-23T08:27:10.743Z,75
2016-08-23T08:28:10.040Z,70
2016-08-23T08:29:11.489Z,70
2016-08-23T08:30:11.498Z,70
2016-08-23T08:31:10.919Z,70
2016-08-23T08:32:10.717Z,70
2016-08-23T08:33:10.024Z,70
2016-08-23T08:34:10.734Z,70
2016-08-23T08:35:10.105Z,75
2016-08-23T08:36:10.093Z,75
2016-08-23T08:37:10.069Z,75
2016-08-23T08:38:10.822Z,75
2016-08-23T08:39:10.776Z,75
2016-08-23T08:40:10.864Z,75
2016-08-23T08:41:10.072Z,80
2016-08-23T08:42:09.717Z,80
2016-08-23T08:43:09.384Z,85
2016-08-23T08:44:11.448Z,90
2016-08-23T08:45:10.807Z,95
2016-08-23T08:46:09.461Z,95
2016-08-23T08:47:10.915Z,95
2016-08-23T08:48:10.126Z,100
2016-08-23T08:49:10.177Z,100
2016-08-23T08:50:10.129Z,100
2016-08-23T08:51:10.587Z,100
2016-08-23T08:52:10.857Z,105
2016-08-23T08:53:10.147Z,105
2016-08-23T08:54:10.166Z,105
2016-08-23T08:55:12.037Z,105
2016-08-23T08:56:10.170Z,105
2016-08-23T08:57:10.938Z,105
2016-08-23T08:58:10.948Z,105
2016-08-23T08:59:10.203Z,105
2016-08-23T09:00:11.614Z,105
2016-08-23T09:01:09.503Z,105
2016-08-23T09:02:11.017Z,105
2016-08-23T09:03:10.273Z,105
2016-08-23T09:04:12.119Z,105
2016-08-23T09:05:10.957Z,105
2016-08-23T09:06:10.760Z,105
2016-08-23T09:07:09.537Z,105
2016-08-23T09:08:11.664Z,105
2016-08-23T09:09:11.670Z,105
2016-08-23T09:10:11.674Z,105
2016-08-23T09:11:10.981Z,100
2016-08-23T09:12:10.275Z,105
2016-08-23T09:13:10.022Z,105
2016-08-23T09:14:10.333Z,100
2016-08-23T09:15:11.741Z,100
2016-08-23T09:16:10.293Z,105
2016-08-23T09:17:11.258Z,100
2016-08-23T09:18:09.601Z,95
2016-08-23T09:19:10.368Z,95
2016-08-23T09:20:10.327Z,100
2016-08-23T09:21:10.339Z,100
2016-08-23T09:22:11.043Z,95
2016-08-23T09:23:11.062Z,95
2016-08-23T09:24:10.951Z,95
2016-08-23T09:25:08.935Z,95
2016-08-23T09:26:13.466Z,95
2016-08-23T09:27:09.670Z,100
2016-08-23T09:28:10.263Z,95
2016-08-23T09:29:11.078Z,100
2016-08-23T09:30:11.143Z,95
2016-08-23T09:31:11.207Z,100
2016-08-23T09:32:11.103Z,100
2016-08-23T09:33:10.399Z,100
2016-08-23T09:34:11.114Z,100
2016-08-23T09:35:11.703Z,100
2016-08-23T09:36:11.125Z,100
2016-08-23T09:37:12.084Z,100
2016-08-23T09:38:10.430Z,100
2016-08-23T09:39:13.122Z,100
2016-08-23T09:40:10.449Z,100
2016-08-23T09:41:10.463Z,100
2016-08-23T09:42:10.459Z,95
2016-08-23T09:43:10.465Z,95
2016-08-23T09:44:11.180Z,95
2016-08-23T09:45:10.479Z,95
2016-08-23T09:46:09.785Z,95
2016-08-23T09:47:11.198Z,95
2016-08-23T09:48:11.602Z,90
2016-08-23T09:49:09.803Z,95
2016-08-23T09:50:12.729Z,95
2016-08-23T09:51:10.523Z,90
2016-08-23T09:52:11.985Z,85
2016-08-23T09:53:11.283Z,90
2016-08-23T09:54:09.829Z,90
2016-08-23T09:55:11.247Z,90
2016-08-23T09:56:09.843Z,90
2016-08-23T09:57:11.764Z,90
2016-08-23T09:58:11.268Z,90
2016-08-23T09:59:11.379Z,90
2016-08-23T10:00:09.919Z,90
2016-08-23T10:01:09.516Z,90
2016-08-23T10:02:09.927Z,90
2016-08-23T10:03:11.306Z,90
2016-08-23T10:04:10.594Z,90
2016-08-23T10:05:11.307Z,90
2016-08-23T10:06:10.636Z,85
2016-08-23T10:07:11.327Z,85
2016-08-23T10:08:11.441Z,85
2016-08-23T10:09:10.627Z,85
2016-08-23T10:10:10.386Z,85
2016-08-23T10:11:09.284Z,85
2016-08-23T10:12:12.918Z,90
2016-08-23T10:13:11.366Z,85
2016-08-23T10:14:09.982Z,85
2016-08-23T10:15:10.681Z,85
2016-08-23T10:16:10.688Z,85
2016-08-23T10:17:11.406Z,85
2016-08-23T10:18:10.695Z,85
2016-08-23T10:19:11.464Z,85
2016-08-23T10:20:10.713Z,85
2016-08-23T10:21:13.068Z,85
2016-08-23T10:22:10.720Z,85
2016-08-23T10:23:09.363Z,85
2016-08-23T10:24:10.737Z,85
2016-08-23T10:25:10.027Z,85
2016-08-23T10:26:11.458Z,85
2016-08-23T10:27:12.270Z,85
2016-08-23T10:28:11.517Z,85
2016-08-23T10:29:11.470Z,85
2016-08-23T10:30:11.544Z,85
2016-08-23T10:31:10.776Z,85
2016-08-23T10:32:10.832Z,80
2016-08-23T10:33:11.510Z,80
2016-08-23T10:34:12.417Z,80
2016-08-23T10:35:10.888Z,80
2016-08-23T10:36:11.527Z,80
2016-08-23T10:37:10.817Z,80
2016-08-23T10:38:10.825Z,80
2016-08-23T10:39:10.830Z,80
2016-08-23T10:40:10.135Z,80
2016-08-23T10:41:11.553Z,80
2016-08-23T10:42:12.068Z,80
2016-08-23T10:43:12.637Z,80
2016-08-23T10:44:10.158Z,80
2016-08-23T10:45:11.467Z,80
2016-08-23T10:46:11.589Z,80
2016-08-23T10:47:10.937Z,80
2016-08-23T10:48:10.936Z,80
2016-08-23T10:49:11.654Z,80
2016-08-23T10:50:10.921Z,80
2016-08-23T10:51:09.493Z,80
2016-08-23T10:52:09.509Z,80
2016-08-23T10:53:11.633Z,85
2016-08-23T10:54:11.680Z,80
2016-08-23T10:55:11.643Z,80
2016-08-23T10:56:11.715Z,80
2016-08-23T10:57:10.953Z,75
2016-08-23T10:58:10.964Z,75
2016-08-23T10:59:10.968Z,75
2016-08-23T11:00:10.331Z,75
2016-08-23T11:01:11.696Z,75
2016-08-23T11:02:11.693Z,75
2016-08-23T11:03:11.000Z,75
2016-08-23T11:04:11.056Z,75
2016-08-23T11:05:12.123Z,75
2016-08-23T11:06:11.039Z,75
2016-08-23T11:07:11.053Z,75
2016-08-23T11:08:11.744Z,75
2016-08-23T11:09:12.078Z,75
2016-08-23T11:10:11.809Z,75
2016-08-23T11:11:12.480Z,75
2016-08-23T11:12:11.771Z,75
2016-08-23T11:13:11.082Z,75
2016-08-23T11:14:25.955Z,75
2016-08-23T11:15:11.091Z,75
2016-08-23T11:16:11.808Z,75
2016-08-23T11:17:11.100Z,75
2016-08-23T11:18:10.557Z,75
2016-08-23T11:19:11.875Z,75
2016-08-23T11:20:11.127Z,70
2016-08-23T11:21:09.714Z,75
2016-08-23T11:22:11.136Z,75
2016-08-23T11:23:10.440Z,75
2016-08-23T11:24:11.151Z,75
2016-08-23T11:25:11.807Z,75
2016-08-23T11:26:11.940Z,75
2016-08-23T11:27:11.880Z,75
2016-08-23T11:28:10.470Z,75
2016-08-23T11:29:12.483Z,75
2016-08-23T11:30:10.501Z,70
2016-08-23T11:31:11.963Z,70
2016-08-23T11:32:11.263Z,70
2016-08-23T11:33:12.631Z,70
2016-08-23T11:34:13.655Z,70
2016-08-23T11:35:11.287Z,70
2016-08-23T11:36:11.390Z,70
2016-08-23T11:37:12.005Z,70
2016-08-23T11:38:13.279Z,70
2016-08-23T11:39:11.978Z,70
2016-08-23T11:40:12.774Z,70
2016-08-23T11:41:12.001Z,70
2016-08-23T11:42:11.288Z,70
2016-08-23T11:43:11.288Z,70
2016-08-23T11:44:12.777Z,70
2016-08-23T11:45:12.033Z,70
2016-08-23T11:46:12.726Z,70
2016-08-23T11:47:10.621Z,70
2016-08-23T11:48:12.083Z,70
2016-08-23T11:49:13.186Z,65
2016-08-23T11:50:12.050Z,65
2016-08-23T11:51:12.806Z,65
2016-08-23T11:52:12.786Z,65
2016-08-23T11:53:12.073Z,65
2016-08-23T11:54:10.668Z,65
2016-08-23T11:55:11.428Z,65
2016-08-23T11:56:10.681Z,65
2016-08-23T11:57:10.688Z,65
2016-08-23T11:58:12.818Z,65
2016-08-23T11:59:12.137Z,65
2016-08-23T12:00:13.005Z,65
2016-08-23T12:01:10.718Z,65
2016-08-23T12:02:12.543Z,65
2016-08-23T12:03:12.157Z,65
2016-08-23T12:04:10.099Z,65
2016-08-23T12:05:11.468Z,65
2016-08-23T12:06:11.467Z,65
2016-08-23T12:07:10.762Z,65
2016-08-23T12:08:12.281Z,65
2016-08-23T12:09:12.904Z,65
2016-08-23T12:10:12.198Z,65
2016-08-23T12:11:14.746Z,65
2016-08-23T12:12:12.212Z,65
2016-08-23T12:13:12.222Z,60
2016-08-23T12:14:11.575Z,65
2016-08-23T12:15:11.582Z,60
2016-08-23T12:16:11.539Z,60
2016-08-23T12:17:12.264Z,60
2016-08-23T12:18:11.553Z,60
2016-08-23T12:19:11.565Z,60
2016-08-23T12:20:12.278Z,60
2016-08-23T12:21:11.580Z,60
2016-08-23T12:22:12.630Z,60
2016-08-23T12:23:10.884Z,60
2016-08-23T12:24:12.317Z,60
2016-08-23T12:25:12.314Z,60
2016-08-23T12:26:11.609Z,60
2016-08-23T12:27:12.332Z,60
2016-08-23T12:28:12.336Z,60
2016-08-23T12:29:10.930Z,60
2016-08-23T12:30:13.059Z,60
2016-08-23T12:31:12.356Z,60
2016-08-23T12:32:10.954Z,60
2016-08-23T12:33:13.074Z,60
2016-08-23T12:34:13.080Z,60
2016-08-23T12:35:11.894Z,60
2016-08-23T12:36:10.319Z,60
2016-08-23T12:37:10.992Z,60
2016-08-23T12:38:12.406Z,60
2016-08-23T12:39:11.721Z,60
2016-08-23T12:40:11.010Z,60
2016-08-23T12:41:12.482Z,60
2016-08-23T12:43:12.446Z,60
2016-08-23T12:44:12.251Z,60
2016-08-23T12:45:10.339Z,55
2016-08-23T12:46:12.721Z,55
2016-08-23T12:47:12.535Z,55
2016-08-23T12:48:11.776Z,55
2016-08-23T12:49:11.075Z,55
2016-08-23T12:50:11.847Z,55
2016-08-23T12:51:12.508Z,55
2016-08-23T12:52:13.265Z,55
2016-08-23T12:53:11.808Z,55
2016-08-23T12:54:11.814Z,55
2016-08-23T12:55:12.829Z,55
2016-08-23T12:56:11.885Z,55
2016-08-23T12:57:12.551Z,55
2016-08-23T12:58:11.846Z,55
2016-08-23T12:59:13.262Z,55
2016-08-23T13:00:11.910Z,55
2016-08-23T13:01:11.159Z,55
2016-08-23T13:02:11.178Z,55
2016-08-23T13:03:13.356Z,55
2016-08-23T13:04:11.937Z,55
2016-08-23T13:05:12.662Z,55
2016-08-23T13:06:12.500Z,55
2016-08-23T13:07:12.616Z,55
2016-08-23T13:08:11.972Z,55
2016-08-23T13:09:12.976Z,55
2016-08-23T13:10:11.930Z,55
2016-08-23T13:11:13.358Z,55
2016-08-23T13:12:11.943Z,50
2016-08-23T13:13:11.953Z,55
2016-08-23T13:14:13.377Z,50
2016-08-23T13:15:12.671Z,50
2016-08-23T13:16:11.269Z,55
2016-08-23T13:17:12.800Z,50
2016-08-23T13:18:11.280Z,50
2016-08-23T13:19:13.988Z,50
2016-08-23T13:20:13.415Z,50
2016-08-23T13:21:12.009Z,50
2016-08-23T13:22:12.018Z,50
2016-08-23T13:23:11.317Z,50
2016-08-23T13:24:12.034Z,50
2016-08-23T13:25:12.751Z,50
2016-08-23T13:26:13.509Z,50
2016-08-23T13:27:12.054Z,50
2016-08-23T13:28:14.141Z,50
2016-08-23T13:29:13.484Z,50
2016-08-23T13:30:13.828Z,50
2016-08-23T13:31:12.089Z,50
2016-08-23T13:32:11.388Z,50
2016-08-23T13:33:12.113Z,50
2016-08-23T13:34:12.115Z,50
2016-08-23T13:35:12.120Z,50
2016-08-23T13:36:12.830Z,50
2016-08-23T13:37:12.891Z,50
2016-08-23T13:38:11.450Z,50
2016-08-23T13:39:12.854Z,50
2016-08-23T13:40:12.158Z,50
2016-08-23T13:41:10.901Z,50
2016-08-23T13:42:13.586Z,50
2016-08-23T13:43:12.942Z,50
2016-08-23T13:44:12.894Z,50
2016-08-23T13:45:13.653Z,50
2016-08-23T13:46:12.216Z,50
2016-08-23T13:47:12.276Z,50
2016-08-23T13:48:13.631Z,50
2016-08-23T13:49:11.513Z,50
2016-08-23T13:50:14.636Z,50
2016-08-23T13:51:11.538Z,50
2016-08-23T13:52:14.208Z,50
2016-08-23T13:53:12.246Z,50
2016-08-23T13:54:10.848Z,50
2016-08-23T13:55:12.337Z,50
2016-08-23T13:56:12.978Z,50
2016-08-23T13:57:13.087Z,50
2016-08-23T13:58:12.996Z,50
2016-08-23T13:59:10.984Z,50
2016-08-23T14:00:12.315Z,50
2016-08-23T14:01:14.572Z,50
2016-08-23T14:02:12.315Z,50
2016-08-23T14:03:13.469Z,50
2016-08-23T14:04:12.334Z,50
2016-08-23T14:05:12.352Z,50
2016-08-23T14:06:13.064Z,50
2016-08-23T14:07:12.955Z,50
2016-08-23T14:08:11.659Z,50
2016-08-23T14:09:12.522Z,50
2016-08-23T14:10:12.378Z,50
2016-08-23T14:11:11.674Z,50
2016-08-23T14:12:13.846Z,50
2016-08-23T14:13:12.399Z,50
2016-08-23T14:14:15.560Z,50
2016-08-23T14:15:13.124Z,50
2016-08-23T14:16:13.191Z,50
2016-08-23T14:17:12.431Z,50
2016-08-23T14:18:12.441Z,50
2016-08-23T14:19:11.742Z,50
2016-08-23T14:20:13.215Z,50
2016-08-23T14:21:12.467Z,50
2016-08-23T14:22:13.225Z,50
2016-08-23T14:23:14.562Z,50